地図

経路データ

SID SEASON NUMBER BASIN SUBBASIN NAME ISO_TIME NATURE LAT LON WMO_WIND WMO_PRES WMO_AGENCY TRACK_TYPE DIST2LAND LANDFALL IFLAG USA_AGENCY USA_ATCF_ID USA_LAT USA_LON USA_RECORD USA_STATUS USA_WIND USA_PRES USA_SSHS USA_R34_NE USA_R34_SE USA_R34_SW USA_R34_NW USA_R50_NE USA_R50_SE USA_R50_SW USA_R50_NW USA_R64_NE USA_R64_SE USA_R64_SW USA_R64_NW USA_POCI USA_ROCI USA_RMW USA_EYE TOKYO_LAT TOKYO_LON TOKYO_GRADE TOKYO_WIND TOKYO_PRES TOKYO_R50_DIR TOKYO_R50_LONG TOKYO_R50_SHORT TOKYO_R30_DIR TOKYO_R30_LONG TOKYO_R30_SHORT TOKYO_LAND CMA_LAT CMA_LON CMA_CAT CMA_WIND CMA_PRES HKO_LAT HKO_LON HKO_CAT HKO_WIND HKO_PRES NEWDELHI_LAT NEWDELHI_LON NEWDELHI_GRADE NEWDELHI_WIND NEWDELHI_PRES NEWDELHI_CI NEWDELHI_DP NEWDELHI_POCI REUNION_LAT REUNION_LON REUNION_TYPE REUNION_WIND REUNION_PRES REUNION_TNUM REUNION_CI REUNION_RMW REUNION_R34_NE REUNION_R34_SE REUNION_R34_SW REUNION_R34_NW REUNION_R50_NE REUNION_R50_SE REUNION_R50_SW REUNION_R50_NW REUNION_R64_NE REUNION_R64_SE REUNION_R64_SW REUNION_R64_NW BOM_LAT BOM_LON BOM_TYPE BOM_WIND BOM_PRES BOM_TNUM BOM_CI BOM_RMW BOM_R34_NE BOM_R34_SE BOM_R34_SW BOM_R34_NW BOM_R50_NE BOM_R50_SE BOM_R50_SW BOM_R50_NW BOM_R64_NE BOM_R64_SE BOM_R64_SW BOM_R64_NW BOM_ROCI BOM_POCI BOM_EYE BOM_POS_METHOD BOM_PRES_METHOD NADI_LAT NADI_LON NADI_CAT NADI_WIND NADI_PRES WELLINGTON_LAT WELLINGTON_LON WELLINGTON_WIND WELLINGTON_PRES DS824_LAT DS824_LON DS824_STAGE DS824_WIND DS824_PRES TD9636_LAT TD9636_LON TD9636_STAGE TD9636_WIND TD9636_PRES TD9635_LAT TD9635_LON TD9635_WIND TD9635_PRES TD9635_ROCI NEUMANN_LAT NEUMANN_LON NEUMANN_CLASS NEUMANN_WIND NEUMANN_PRES MLC_LAT MLC_LON MLC_CLASS MLC_WIND MLC_PRES USA_GUST BOM_GUST BOM_GUST_PER REUNION_GUST REUNION_GUST_PER USA_SEAHGT USA_SEARAD_NE USA_SEARAD_SE USA_SEARAD_SW USA_SEARAD_NW STORM_SPEED STORM_DIR
1970122N10089 1970 41 NI BB NOT_NAMED 1970-05-01 18:00:00 TS 10.0000 88.6000 main 794 784 O________O____ jtwc_io IO031970 10.0000 88.6000 -1 10.0000 88.6000 TC 4 315
1970122N10089 1970 41 NI BB NOT_NAMED 1970-05-01 21:00:00 TS 10.1475 88.4500 main 788 775 P________P____ IO031970 10.1475 88.4500 -1 10.1475 88.4500 TC 5 324
1970122N10089 1970 41 NI BB NOT_NAMED 1970-05-02 00:00:00 TS 10.4000 88.3000 main 780 774 O________O____ jtwc_io IO031970 10.4000 88.3000 -1 10.4000 88.3000 TC 25 7 336
1970122N10089 1970 41 NI BB NOT_NAMED 1970-05-02 03:00:00 TS 10.8289 88.1444 main 779 779 P________PO___ IO031970 10.8325 88.1500 -1 10.8325 88.1500 TC 25 10.8000 88.1000 1 11 343
1970122N10089 1970 41 NI BB NOT_NAMED 1970-05-02 06:00:00 TS 11.4182 87.9783 main 797 785 O________OP___ jtwc_io IO031970 11.4000 88.0000 -1 11.4000 88.0000 TC 25 11.4908 87.8917 1 13 345
1970122N10089 1970 41 NI BB NOT_NAMED 1970-05-02 09:00:00 TS 12.0787 87.8108 main 777 726 P________PP___ IO031970 12.0500 87.8500 -1 12.0500 87.8500 TC 25 12.1553 87.7061 1 14 346
1970122N10089 1970 41 NI BB NOT_NAMED 1970-05-02 12:00:00 TS 12.7224 87.6558 main 726 674 O________OP___ jtwc_io IO031970 12.7000 87.7000 -1 12.7000 87.7000 TC 25 12.7671 87.5675 1 12 346
1970122N10089 1970 41 NI BB NOT_NAMED 1970-05-02 15:00:00 TS 13.2583 87.4985 main 666 624 P________PO___ IO031970 13.2375 87.4977 -1 13.2375 87.4977 TC 30 13.3000 87.5000 1 10 348
1970122N10089 1970 41 NI BB NOT_NAMED 1970-05-02 18:00:00 TS 13.7134 87.4405 main 624 593 O________OP___ jtwc_io IO031970 13.7000 87.4000 -1 13.7000 87.4000 TC 35 13.7401 87.5215 1 9 5
1970122N10089 1970 41 NI BB NOT_NAMED 1970-05-02 21:00:00 TS 14.1124 87.5675 main 600 580 P________PP___ IO031970 14.1075 87.5399 -1 14.1075 87.5399 TC 35 14.1223 87.6226 1 9 24
1970122N10089 1970 41 NI BB NOT_NAMED 1970-05-03 00:00:00 TS 14.4978 87.7958 main 580 563 O________OP___ jtwc_io IO031970 14.5000 87.8000 -1 14.5000 87.8000 TC 35 14.4933 87.7875 1 9 29
1970122N10089 1970 41 NI BB NOT_NAMED 1970-05-03 03:00:00 TS 14.9083 88.0235 main 563 547 P________PO___ IO031970 14.9125 88.0352 -1 14.9125 88.0352 TC 35 14.9000 88.0000 3 10 27
1970122N10089 1970 41 NI BB NOT_NAMED 1970-05-03 06:00:00 TS 15.4199 88.2810 main 547 499 O________OP___ jtwc_io IO031970 15.4000 88.3000 -1 15.4000 88.3000 TC 35 15.4598 88.2431 3 13 25
1970122N10089 1970 41 NI BB NOT_NAMED 1970-05-03 09:00:00 TS 16.0610 88.5802 main 494 457 P________PP___ IO031970 16.0650 88.6072 -1 16.0650 88.6072 TC 35 16.0528 88.5261 3 14 24
1970122N10089 1970 41 NI BB NOT_NAMED 1970-05-03 12:00:00 TS 16.6731 88.8737 main 453 431 O________OP___ jtwc_io IO031970 16.7000 88.9000 -1 16.7000 88.9000 TC 35 16.6193 88.8212 3 12 26
1970122N10089 1970 41 NI BB NOT_NAMED 1970-05-03 15:00:00 TS 17.1116 89.1102 main 431 421 P________PO___ IO031970 17.1174 89.1153 -1 17.1174 89.1153 TC 35 17.1000 89.1000 3 9 29
1970122N10089 1970 41 NI BB NOT_NAMED 1970-05-03 18:00:00 TS 17.4101 89.3101 main 421 414 O________OP___ jtwc_io IO031970 17.4000 89.3000 -1 17.4000 89.3000 TC 35 17.4304 89.3304 3 7 36
1970122N10089 1970 41 NI BB NOT_NAMED 1970-05-03 21:00:00 TS 17.6382 89.5129 main 421 413 P________PP___ IO031970 17.6225 89.5001 -1 17.6225 89.5001 TC 50 17.6698 89.5383 3 6 43
1970122N10089 1970 41 NI BB NOT_NAMED 1970-05-04 00:00:00 TS 17.8164 89.7090 main 421 390 O________OP___ jtwc_io IO031970 17.8000 89.7000 -1 17.8000 89.7000 TC 65 17.8492 89.7271 3 5 46
1970122N10089 1970 41 NI BB NOT_NAMED 1970-05-04 03:00:00 TS 18.0050 89.9050 main 390 360 P________PO___ IO031970 18.0075 89.9075 -1 18.0075 89.9075 TC 65 18.0000 89.9000 4 5 44
1970122N10089 1970 41 NI BB NOT_NAMED 1970-05-04 06:00:00 TS 18.1946 90.0909 main 360 337 O________OP___ jtwc_io IO031970 18.2000 90.1000 -1 18.2000 90.1000 TC 65 18.1837 90.0726 4 5 43
1970122N10089 1970 41 NI BB NOT_NAMED 1970-05-04 09:00:00 TS 18.3583 90.2534 main 329 314 P________PP___ IO031970 18.3650 90.2650 -1 18.3650 90.2650 TC 65 18.3449 90.2301 4 4 43
1970122N10089 1970 41 NI BB NOT_NAMED 1970-05-04 12:00:00 TS 18.4946 90.3909 main 314 298 O________OP___ jtwc_io IO031970 18.5000 90.4000 -1 18.5000 90.4000 TC 65 18.4837 90.3726 4 3 43
1970122N10089 1970 41 NI BB NOT_NAMED 1970-05-04 15:00:00 TS 18.6100 90.5050 main 298 283 P________PO___ IO031970 18.6150 90.5075 -1 18.6150 90.5075 TC 65 18.6000 90.5000 4 3 45
1970122N10089 1970 41 NI BB NOT_NAMED 1970-05-04 18:00:00 TS 18.6934 90.6035 main 283 275 O________OP___ jtwc_io IO031970 18.7000 90.6000 -1 18.7000 90.6000 TC 65 18.6802 90.6105 4 2 54
1970122N10089 1970 41 NI BB NOT_NAMED 1970-05-04 21:00:00 TS 18.7425 90.7026 main 275 260 P________PP___ IO031970 18.7425 90.7001 -1 18.7425 90.7001 TC 65 18.7424 90.7078 4 2 60
1970122N10089 1970 41 NI BB NOT_NAMED 1970-05-05 00:00:00 TS 18.8028 90.8004 main 260 245 O________OP___ jtwc_io IO031970 18.8000 90.8000 -1 18.8000 90.8000 TC 65 18.8084 90.8012 4 3 45
1970122N10089 1970 41 NI BB NOT_NAMED 1970-05-05 03:00:00 TS 18.9233 90.8950 main 245 222 P________PO___ IO031970 18.9350 90.8925 -1 18.9350 90.8925 TC 65 18.9000 90.9000 4 3 35
1970122N10089 1970 41 NI BB NOT_NAMED 1970-05-05 06:00:00 TS 19.0875 91.0113 main 222 199 O________OP___ jtwc_io IO031970 19.1000 91.0000 -1 19.1000 91.0000 TC 65 19.0626 91.0339 4 4 38
1970122N10089 1970 41 NI BB NOT_NAMED 1970-05-05 09:00:00 TS 19.2501 91.1624 main 192 177 P________PP___ IO031970 19.2500 91.1575 -1 19.2500 91.1575 TC 65 19.2501 91.1722 4 4 40
1970122N10089 1970 41 NI BB NOT_NAMED 1970-05-05 12:00:00 TS 19.4125 91.2998 main 177 156 O________OP___ jtwc_io IO031970 19.4000 91.3000 -1 19.4000 91.3000 TC 65 19.4376 91.2995 4 4 32
1970122N10089 1970 41 NI BB NOT_NAMED 1970-05-05 15:00:00 TS 19.5767 91.3767 main 156 151 P________PO___ IO031970 19.5650 91.3650 -1 19.5650 91.3650 TC 65 19.6000 91.4000 4 3 22
1970122N10089 1970 41 NI BB NOT_NAMED 1970-05-05 18:00:00 TS 19.6945 91.4166 main 151 142 O________OP___ jtwc_io IO031970 19.7000 91.4000 -1 19.7000 91.4000 TC 65 19.6834 91.4499 4 2 25
1970122N10089 1970 41 NI BB NOT_NAMED 1970-05-05 21:00:00 TS 19.7525 91.4626 main 137 137 P________PP___ IO031970 19.7575 91.4575 -1 19.7575 91.4575 TC 65 19.7424 91.4728 4 1 31
1970122N10089 1970 41 NI BB NOT_NAMED 1970-05-06 00:00:00 TS 19.8018 91.4948 main 137 129 O________OP___ jtwc_io IO031970 19.8000 91.5000 -1 19.8000 91.5000 TC 65 19.8053 91.4843 4 1 14
1970122N10089 1970 41 NI BB NOT_NAMED 1970-05-06 03:00:00 TS 19.8800 91.5000 main 129 122 P________PO___ IO031970 19.8700 91.5000 -1 19.8700 91.5000 TC 65 19.9000 91.5000 4 2 0
1970122N10089 1970 41 NI BB NOT_NAMED 1970-05-06 06:00:00 TS 20.0190 91.5129 main 122 100 O________OP___ jtwc_io IO031970 20.0000 91.5000 -1 20.0000 91.5000 TC 65 20.0475 91.5323 4 4 8
1970122N10089 1970 41 NI BB NOT_NAMED 1970-05-06 09:00:00 TS 20.2300 91.5555 main 100 85 P________PP___ IO031970 20.2225 91.5374 -1 20.2225 91.5374 TC 50 20.2401 91.5797 4 5 12
1970122N10089 1970 41 NI BB NOT_NAMED 1970-05-06 12:00:00 TS 20.4813 91.6186 main 85 66 O________OP___ jtwc_io IO031970 20.5000 91.6000 -1 20.5000 91.6000 TC 35 20.4625 91.6373 4 5 16
1970122N10089 1970 41 NI BB NOT_NAMED 1970-05-06 15:00:00 NR 20.7000 91.7000 main 66 __________O___ IO031970 -1 TC 20.7000 91.7000 2 5 21

IBTrACS Databaseについて

本データベースは、米国NOAAが公開する1842年以降の世界の熱帯低気圧のベストトラックデータアーカイブInternational Best Track Archive for Climate Stewardship (IBTrACS)を、ウェブで閲覧しやすい形式に変換したものです。

最終更新日:2021-10-21